sensor_id;sensor_type;location;lat;lon;timestamp;P1;durP1;ratioP1;P2;durP2;ratioP2
71164;SDS011;58859;55.132;-1.586;2023-05-10T00:02:06;5.80;;;1.90;;
71164;SDS011;58859;55.132;-1.586;2023-05-10T00:04:32;8.95;;;2.35;;
71164;SDS011;58859;55.132;-1.586;2023-05-10T00:06:57;7.30;;;2.17;;
71164;SDS011;58859;55.132;-1.586;2023-05-10T00:09:23;6.90;;;2.20;;
71164;SDS011;58859;55.132;-1.586;2023-05-10T00:11:48;12.57;;;2.70;;
71164;SDS011;58859;55.132;-1.586;2023-05-10T00:14:14;8.57;;;1.90;;
71164;SDS011;58859;55.132;-1.586;2023-05-10T00:16:39;5.27;;;1.87;;
71164;SDS011;58859;55.132;-1.586;2023-05-10T00:19:05;6.90;;;2.50;;
71164;SDS011;58859;55.132;-1.586;2023-05-10T00:21:30;10.17;;;2.33;;
71164;SDS011;58859;55.132;-1.586;2023-05-10T00:23:57;6.47;;;1.50;;
71164;SDS011;58859;55.132;-1.586;2023-05-10T00:26:22;6.20;;;2.13;;
71164;SDS011;58859;55.132;-1.586;2023-05-10T00:28:47;6.97;;;2.08;;
71164;SDS011;58859;55.132;-1.586;2023-05-10T00:31:13;7.10;;;1.50;;
71164;SDS011;58859;55.132;-1.586;2023-05-10T00:33:39;5.40;;;1.95;;
71164;SDS011;58859;55.132;-1.586;2023-05-10T00:36:05;7.70;;;2.70;;
71164;SDS011;58859;55.132;-1.586;2023-05-10T00:38:32;7.20;;;2.00;;
71164;SDS011;58859;55.132;-1.586;2023-05-10T00:40:58;7.47;;;2.10;;
71164;SDS011;58859;55.132;-1.586;2023-05-10T00:43:23;7.47;;;2.47;;
71164;SDS011;58859;55.132;-1.586;2023-05-10T00:45:49;10.90;;;2.17;;
71164;SDS011;58859;55.132;-1.586;2023-05-10T00:48:14;5.80;;;2.30;;
71164;SDS011;58859;55.132;-1.586;2023-05-10T00:50:40;6.07;;;2.20;;
71164;SDS011;58859;55.132;-1.586;2023-05-10T00:53:05;8.47;;;2.27;;
71164;SDS011;58859;55.132;-1.586;2023-05-10T00:55:32;6.35;;;2.10;;
71164;SDS011;58859;55.132;-1.586;2023-05-10T00:57:57;10.97;;;3.33;;
71164;SDS011;58859;55.132;-1.586;2023-05-10T01:00:23;10.65;;;2.58;;
71164;SDS011;58859;55.132;-1.586;2023-05-10T01:02:49;8.38;;;2.60;;
71164;SDS011;58859;55.132;-1.586;2023-05-10T01:05:15;4.03;;;2.85;;
71164;SDS011;58859;55.132;-1.586;2023-05-10T01:07:40;11.17;;;2.40;;
71164;SDS011;58859;55.132;-1.586;2023-05-10T01:10:06;6.90;;;2.70;;
71164;SDS011;58859;55.132;-1.586;2023-05-10T01:12:35;8.10;;;2.35;;
71164;SDS011;58859;55.132;-1.586;2023-05-10T01:15:03;7.15;;;2.35;;
71164;SDS011;58859;55.132;-1.586;2023-05-10T01:17:31;5.60;;;2.53;;
71164;SDS011;58859;55.132;-1.586;2023-05-10T01:19:58;9.75;;;2.60;;
71164;SDS011;58859;55.132;-1.586;2023-05-10T01:35:02;10.13;;;2.40;;
71164;SDS011;58859;55.132;-1.586;2023-05-10T01:37:41;7.80;;;2.70;;
71164;SDS011;58859;55.132;-1.586;2023-05-10T01:43:17;5.47;;;2.58;;
71164;SDS011;58859;55.132;-1.586;2023-05-10T01:45:54;7.75;;;2.97;;
71164;SDS011;58859;55.132;-1.586;2023-05-10T01:48:29;9.70;;;2.40;;
71164;SDS011;58859;55.132;-1.586;2023-05-10T01:50:56;9.70;;;3.25;;
71164;SDS011;58859;55.132;-1.586;2023-05-10T01:53:23;9.25;;;2.88;;
71164;SDS011;58859;55.132;-1.586;2023-05-10T01:55:52;6.65;;;2.63;;
71164;SDS011;58859;55.132;-1.586;2023-05-10T01:58:21;8.80;;;2.85;;
71164;SDS011;58859;55.132;-1.586;2023-05-10T02:00:50;7.03;;;2.17;;
71164;SDS011;58859;55.132;-1.586;2023-05-10T02:03:17;7.32;;;2.72;;
71164;SDS011;58859;55.132;-1.586;2023-05-10T02:05:46;6.90;;;3.22;;
71164;SDS011;58859;55.132;-1.586;2023-05-10T02:08:14;8.73;;;2.70;;
71164;SDS011;58859;55.132;-1.586;2023-05-10T02:10:42;11.82;;;2.80;;
71164;SDS011;58859;55.132;-1.586;2023-05-10T02:13:10;12.52;;;3.53;;
71164;SDS011;58859;55.132;-1.586;2023-05-10T02:15:37;9.98;;;2.95;;
71164;SDS011;58859;55.132;-1.586;2023-05-10T02:18:05;6.72;;;2.80;;
71164;SDS011;58859;55.132;-1.586;2023-05-10T02:20:34;9.18;;;2.80;;
71164;SDS011;58859;55.132;-1.586;2023-05-10T02:23:00;7.68;;;2.88;;
71164;SDS011;58859;55.132;-1.586;2023-05-10T02:25:28;9.48;;;3.00;;
71164;SDS011;58859;55.132;-1.586;2023-05-10T02:27:55;5.43;;;2.45;;
71164;SDS011;58859;55.132;-1.586;2023-05-10T02:30:22;9.15;;;2.58;;
71164;SDS011;58859;55.132;-1.586;2023-05-10T02:32:48;7.55;;;2.78;;
71164;SDS011;58859;55.132;-1.586;2023-05-10T02:35:15;13.57;;;2.90;;
71164;SDS011;58859;55.132;-1.586;2023-05-10T02:37:41;9.27;;;2.72;;
71164;SDS011;58859;55.132;-1.586;2023-05-10T02:40:10;10.88;;;2.58;;
71164;SDS011;58859;55.132;-1.586;2023-05-10T02:42:37;8.07;;;3.03;;
71164;SDS011;58859;55.132;-1.586;2023-05-10T02:45:07;5.05;;;2.28;;
71164;SDS011;58859;55.132;-1.586;2023-05-10T02:47:36;8.18;;;2.72;;
71164;SDS011;58859;55.132;-1.586;2023-05-10T02:50:02;9.73;;;2.70;;
71164;SDS011;58859;55.132;-1.586;2023-05-10T02:52:29;8.43;;;2.70;;
71164;SDS011;58859;55.132;-1.586;2023-05-10T02:55:02;9.00;;;2.83;;
71164;SDS011;58859;55.132;-1.586;2023-05-10T02:57:32;9.27;;;2.58;;
71164;SDS011;58859;55.132;-1.586;2023-05-10T02:59:59;12.20;;;2.80;;
71164;SDS011;58859;55.132;-1.586;2023-05-10T03:02:26;6.57;;;2.40;;
71164;SDS011;58859;55.132;-1.586;2023-05-10T03:04:51;6.55;;;2.30;;
71164;SDS011;58859;55.132;-1.586;2023-05-10T03:07:17;9.43;;;2.20;;
71164;SDS011;58859;55.132;-1.586;2023-05-10T03:09:46;5.45;;;2.28;;
71164;SDS011;58859;55.132;-1.586;2023-05-10T03:17:54;8.65;;;2.75;;
71164;SDS011;58859;55.132;-1.586;2023-05-10T03:20:31;8.40;;;1.87;;
71164;SDS011;58859;55.132;-1.586;2023-05-10T03:23:11;5.07;;;2.42;;
71164;SDS011;58859;55.132;-1.586;2023-05-10T03:25:43;8.18;;;2.60;;
71164;SDS011;58859;55.132;-1.586;2023-05-10T03:28:10;9.65;;;2.67;;
71164;SDS011;58859;55.132;-1.586;2023-05-10T03:30:36;4.35;;;2.58;;
71164;SDS011;58859;55.132;-1.586;2023-05-10T03:33:05;5.90;;;2.50;;
71164;SDS011;58859;55.132;-1.586;2023-05-10T03:35:31;5.13;;;2.28;;
71164;SDS011;58859;55.132;-1.586;2023-05-10T03:37:57;6.27;;;2.00;;
71164;SDS011;58859;55.132;-1.586;2023-05-10T03:40:22;8.85;;;2.58;;
71164;SDS011;58859;55.132;-1.586;2023-05-10T03:42:48;8.82;;;2.75;;
71164;SDS011;58859;55.132;-1.586;2023-05-10T03:45:14;7.70;;;2.70;;
71164;SDS011;58859;55.132;-1.586;2023-05-10T03:47:40;4.57;;;2.60;;
71164;SDS011;58859;55.132;-1.586;2023-05-10T03:50:05;5.93;;;2.60;;
71164;SDS011;58859;55.132;-1.586;2023-05-10T03:52:31;6.80;;;2.20;;
71164;SDS011;58859;55.132;-1.586;2023-05-10T03:54:57;7.10;;;2.38;;
71164;SDS011;58859;55.132;-1.586;2023-05-10T03:57:22;7.43;;;2.43;;
71164;SDS011;58859;55.132;-1.586;2023-05-10T03:59:47;4.97;;;2.47;;
71164;SDS011;58859;55.132;-1.586;2023-05-10T04:02:13;8.63;;;2.37;;
71164;SDS011;58859;55.132;-1.586;2023-05-10T04:04:38;3.97;;;2.20;;
71164;SDS011;58859;55.132;-1.586;2023-05-10T04:07:03;8.23;;;2.60;;
71164;SDS011;58859;55.132;-1.586;2023-05-10T04:09:29;5.95;;;2.30;;
71164;SDS011;58859;55.132;-1.586;2023-05-10T04:11:54;5.43;;;2.20;;
71164;SDS011;58859;55.132;-1.586;2023-05-10T04:14:20;10.23;;;1.90;;
71164;SDS011;58859;55.132;-1.586;2023-05-10T04:16:45;5.97;;;2.03;;
71164;SDS011;58859;55.132;-1.586;2023-05-10T04:19:11;9.97;;;2.40;;
71164;SDS011;58859;55.132;-1.586;2023-05-10T04:21:36;4.18;;;1.92;;
71164;SDS011;58859;55.132;-1.586;2023-05-10T04:24:02;5.93;;;2.83;;
71164;SDS011;58859;55.132;-1.586;2023-05-10T04:26:27;8.40;;;2.80;;
71164;SDS011;58859;55.132;-1.586;2023-05-10T04:28:52;6.60;;;2.25;;
71164;SDS011;58859;55.132;-1.586;2023-05-10T04:31:18;7.43;;;2.40;;
71164;SDS011;58859;55.132;-1.586;2023-05-10T04:33:43;6.80;;;2.47;;
71164;SDS011;58859;55.132;-1.586;2023-05-10T04:36:09;4.27;;;1.93;;
71164;SDS011;58859;55.132;-1.586;2023-05-10T04:38:34;7.47;;;2.30;;
71164;SDS011;58859;55.132;-1.586;2023-05-10T04:41:03;7.90;;;2.42;;
71164;SDS011;58859;55.132;-1.586;2023-05-10T04:43:32;8.95;;;2.10;;
71164;SDS011;58859;55.132;-1.586;2023-05-10T04:45:58;4.63;;;2.10;;
71164;SDS011;58859;55.132;-1.586;2023-05-10T04:48:24;11.30;;;2.60;;
71164;SDS011;58859;55.132;-1.586;2023-05-10T04:50:50;4.63;;;1.88;;
71164;SDS011;58859;55.132;-1.586;2023-05-10T04:53:15;4.88;;;2.38;;
71164;SDS011;58859;55.132;-1.586;2023-05-10T04:55:41;4.33;;;1.80;;
71164;SDS011;58859;55.132;-1.586;2023-05-10T04:58:06;5.47;;;2.10;;
71164;SDS011;58859;55.132;-1.586;2023-05-10T05:00:32;4.70;;;2.10;;
71164;SDS011;58859;55.132;-1.586;2023-05-10T05:02:58;6.68;;;2.50;;
71164;SDS011;58859;55.132;-1.586;2023-05-10T05:05:24;4.90;;;2.88;;
71164;SDS011;58859;55.132;-1.586;2023-05-10T05:07:49;6.73;;;2.20;;
71164;SDS011;58859;55.132;-1.586;2023-05-10T05:10:15;8.67;;;2.13;;
71164;SDS011;58859;55.132;-1.586;2023-05-10T05:12:41;6.68;;;2.08;;
71164;SDS011;58859;55.132;-1.586;2023-05-10T05:15:06;6.80;;;2.00;;
71164;SDS011;58859;55.132;-1.586;2023-05-10T05:17:34;4.78;;;1.75;;
71164;SDS011;58859;55.132;-1.586;2023-05-10T05:19:59;5.05;;;1.70;;
71164;SDS011;58859;55.132;-1.586;2023-05-10T05:22:25;7.30;;;2.17;;
71164;SDS011;58859;55.132;-1.586;2023-05-10T05:24:55;7.95;;;2.60;;
71164;SDS011;58859;55.132;-1.586;2023-05-10T05:27:23;6.18;;;2.47;;
71164;SDS011;58859;55.132;-1.586;2023-05-10T05:29:52;4.28;;;2.50;;
71164;SDS011;58859;55.132;-1.586;2023-05-10T05:32:18;3.88;;;2.15;;
71164;SDS011;58859;55.132;-1.586;2023-05-10T05:34:44;7.65;;;2.13;;
71164;SDS011;58859;55.132;-1.586;2023-05-10T05:37:16;7.60;;;2.87;;
71164;SDS011;58859;55.132;-1.586;2023-05-10T05:39:43;7.18;;;2.47;;
71164;SDS011;58859;55.132;-1.586;2023-05-10T05:42:09;5.15;;;2.20;;
71164;SDS011;58859;55.132;-1.586;2023-05-10T05:44:35;10.95;;;2.55;;
71164;SDS011;58859;55.132;-1.586;2023-05-10T05:47:01;8.40;;;2.50;;
71164;SDS011;58859;55.132;-1.586;2023-05-10T05:49:27;6.97;;;2.17;;
71164;SDS011;58859;55.132;-1.586;2023-05-10T05:51:52;5.57;;;2.40;;
71164;SDS011;58859;55.132;-1.586;2023-05-10T05:54:18;6.75;;;2.30;;
71164;SDS011;58859;55.132;-1.586;2023-05-10T05:56:43;6.53;;;2.58;;
71164;SDS011;58859;55.132;-1.586;2023-05-10T05:59:09;8.77;;;2.47;;
71164;SDS011;58859;55.132;-1.586;2023-05-10T06:01:35;8.75;;;2.83;;
71164;SDS011;58859;55.132;-1.586;2023-05-10T06:04:01;7.73;;;2.53;;
71164;SDS011;58859;55.132;-1.586;2023-05-10T06:06:26;8.18;;;2.42;;
71164;SDS011;58859;55.132;-1.586;2023-05-10T06:08:52;7.85;;;2.92;;
71164;SDS011;58859;55.132;-1.586;2023-05-10T06:11:17;5.30;;;2.80;;
71164;SDS011;58859;55.132;-1.586;2023-05-10T06:13:42;6.20;;;3.07;;
71164;SDS011;58859;55.132;-1.586;2023-05-10T06:16:08;7.38;;;2.53;;
71164;SDS011;58859;55.132;-1.586;2023-05-10T06:18:33;6.57;;;2.80;;
71164;SDS011;58859;55.132;-1.586;2023-05-10T06:20:59;5.53;;;2.83;;
71164;SDS011;58859;55.132;-1.586;2023-05-10T06:23:25;7.60;;;2.60;;
71164;SDS011;58859;55.132;-1.586;2023-05-10T06:25:51;6.70;;;2.45;;
71164;SDS011;58859;55.132;-1.586;2023-05-10T06:28:17;7.88;;;3.10;;
71164;SDS011;58859;55.132;-1.586;2023-05-10T06:30:42;11.80;;;2.80;;
71164;SDS011;58859;55.132;-1.586;2023-05-10T06:33:08;7.67;;;2.60;;
71164;SDS011;58859;55.132;-1.586;2023-05-10T06:35:33;11.07;;;2.83;;
71164;SDS011;58859;55.132;-1.586;2023-05-10T06:37:59;6.23;;;2.37;;
71164;SDS011;58859;55.132;-1.586;2023-05-10T06:40:24;4.93;;;2.40;;
71164;SDS011;58859;55.132;-1.586;2023-05-10T06:42:50;9.87;;;2.70;;
71164;SDS011;58859;55.132;-1.586;2023-05-10T06:45:15;8.90;;;2.43;;
71164;SDS011;58859;55.132;-1.586;2023-05-10T06:47:41;6.78;;;2.50;;
71164;SDS011;58859;55.132;-1.586;2023-05-10T06:50:07;10.43;;;3.27;;
71164;SDS011;58859;55.132;-1.586;2023-05-10T06:52:34;5.30;;;2.55;;
71164;SDS011;58859;55.132;-1.586;2023-05-10T06:54:59;6.23;;;2.20;;
71164;SDS011;58859;55.132;-1.586;2023-05-10T06:57:25;7.80;;;1.73;;
71164;SDS011;58859;55.132;-1.586;2023-05-10T06:59:51;11.37;;;2.13;;
71164;SDS011;58859;55.132;-1.586;2023-05-10T07:02:17;3.95;;;1.65;;
71164;SDS011;58859;55.132;-1.586;2023-05-10T07:04:42;3.93;;;2.17;;
71164;SDS011;58859;55.132;-1.586;2023-05-10T07:07:08;3.60;;;1.63;;
71164;SDS011;58859;55.132;-1.586;2023-05-10T07:09:33;5.20;;;1.80;;
71164;SDS011;58859;55.132;-1.586;2023-05-10T07:11:59;7.17;;;2.13;;
71164;SDS011;58859;55.132;-1.586;2023-05-10T07:14:24;5.13;;;1.43;;
71164;SDS011;58859;55.132;-1.586;2023-05-10T07:16:50;9.10;;;2.08;;
71164;SDS011;58859;55.132;-1.586;2023-05-10T07:19:15;2.88;;;1.50;;
71164;SDS011;58859;55.132;-1.586;2023-05-10T07:21:40;5.17;;;1.80;;
71164;SDS011;58859;55.132;-1.586;2023-05-10T07:24:08;5.10;;;1.60;;
71164;SDS011;58859;55.132;-1.586;2023-05-10T07:26:33;4.47;;;1.20;;
71164;SDS011;58859;55.132;-1.586;2023-05-10T07:28:59;9.00;;;1.77;;
71164;SDS011;58859;55.132;-1.586;2023-05-10T07:31:24;7.17;;;2.07;;
71164;SDS011;58859;55.132;-1.586;2023-05-10T07:33:49;4.93;;;1.20;;
71164;SDS011;58859;55.132;-1.586;2023-05-10T07:36:15;5.40;;;1.30;;
71164;SDS011;58859;55.132;-1.586;2023-05-10T07:38:40;1.30;;;1.20;;
71164;SDS011;58859;55.132;-1.586;2023-05-10T07:41:06;5.23;;;1.60;;
71164;SDS011;58859;55.132;-1.586;2023-05-10T07:43:31;2.00;;;0.73;;
71164;SDS011;58859;55.132;-1.586;2023-05-10T07:45:56;7.43;;;1.40;;
71164;SDS011;58859;55.132;-1.586;2023-05-10T07:48:22;3.47;;;0.98;;
71164;SDS011;58859;55.132;-1.586;2023-05-10T07:50:48;3.37;;;1.00;;
71164;SDS011;58859;55.132;-1.586;2023-05-10T07:53:13;3.37;;;1.00;;
71164;SDS011;58859;55.132;-1.586;2023-05-10T07:55:38;2.55;;;0.85;;
71164;SDS011;58859;55.132;-1.586;2023-05-10T07:58:04;3.13;;;1.05;;
71164;SDS011;58859;55.132;-1.586;2023-05-10T08:00:29;5.17;;;1.17;;
71164;SDS011;58859;55.132;-1.586;2023-05-10T08:02:55;3.10;;;0.87;;
71164;SDS011;58859;55.132;-1.586;2023-05-10T08:05:20;5.60;;;1.43;;
71164;SDS011;58859;55.132;-1.586;2023-05-10T08:07:45;4.23;;;1.00;;
71164;SDS011;58859;55.132;-1.586;2023-05-10T08:10:11;6.68;;;1.02;;
71164;SDS011;58859;55.132;-1.586;2023-05-10T08:12:37;4.03;;;1.13;;
71164;SDS011;58859;55.132;-1.586;2023-05-10T08:15:03;3.67;;;1.00;;
71164;SDS011;58859;55.132;-1.586;2023-05-10T08:17:29;4.37;;;0.90;;
71164;SDS011;58859;55.132;-1.586;2023-05-10T08:19:54;5.43;;;1.80;;
71164;SDS011;58859;55.132;-1.586;2023-05-10T08:22:20;3.47;;;1.50;;
71164;SDS011;58859;55.132;-1.586;2023-05-10T08:24:45;2.97;;;0.60;;
71164;SDS011;58859;55.132;-1.586;2023-05-10T08:27:10;4.30;;;0.83;;
71164;SDS011;58859;55.132;-1.586;2023-05-10T08:29:36;3.47;;;0.90;;
71164;SDS011;58859;55.132;-1.586;2023-05-10T08:32:02;6.70;;;1.02;;
71164;SDS011;58859;55.132;-1.586;2023-05-10T08:34:28;6.50;;;1.30;;
71164;SDS011;58859;55.132;-1.586;2023-05-10T08:36:53;4.22;;;1.33;;
71164;SDS011;58859;55.132;-1.586;2023-05-10T08:39:18;3.20;;;0.90;;
71164;SDS011;58859;55.132;-1.586;2023-05-10T08:41:44;4.40;;;0.80;;
71164;SDS011;58859;55.132;-1.586;2023-05-10T08:44:11;1.85;;;0.73;;
71164;SDS011;58859;55.132;-1.586;2023-05-10T08:46:36;3.53;;;0.90;;
71164;SDS011;58859;55.132;-1.586;2023-05-10T08:49:08;2.08;;;1.17;;
71164;SDS011;58859;55.132;-1.586;2023-05-10T08:51:39;4.15;;;0.93;;
71164;SDS011;58859;55.132;-1.586;2023-05-10T08:54:08;8.35;;;1.17;;
71164;SDS011;58859;55.132;-1.586;2023-05-10T08:56:34;7.30;;;1.00;;
71164;SDS011;58859;55.132;-1.586;2023-05-10T08:59:01;2.70;;;0.90;;
71164;SDS011;58859;55.132;-1.586;2023-05-10T09:01:26;6.70;;;1.20;;
71164;SDS011;58859;55.132;-1.586;2023-05-10T09:03:52;2.40;;;0.90;;
71164;SDS011;58859;55.132;-1.586;2023-05-10T09:06:18;4.22;;;0.90;;
71164;SDS011;58859;55.132;-1.586;2023-05-10T09:08:44;4.20;;;1.20;;
71164;SDS011;58859;55.132;-1.586;2023-05-10T09:11:12;1.60;;;0.85;;
71164;SDS011;58859;55.132;-1.586;2023-05-10T09:13:38;3.78;;;0.77;;
71164;SDS011;58859;55.132;-1.586;2023-05-10T09:16:04;2.60;;;1.07;;
71164;SDS011;58859;55.132;-1.586;2023-05-10T09:18:30;2.13;;;1.00;;
71164;SDS011;58859;55.132;-1.586;2023-05-10T09:20:55;2.15;;;0.90;;
71164;SDS011;58859;55.132;-1.586;2023-05-10T09:23:21;2.40;;;0.80;;
71164;SDS011;58859;55.132;-1.586;2023-05-10T09:25:46;5.50;;;1.00;;
71164;SDS011;58859;55.132;-1.586;2023-05-10T09:28:12;4.50;;;1.13;;
71164;SDS011;58859;55.132;-1.586;2023-05-10T09:30:38;4.25;;;1.00;;
71164;SDS011;58859;55.132;-1.586;2023-05-10T09:33:04;4.78;;;0.93;;
71164;SDS011;58859;55.132;-1.586;2023-05-10T09:35:30;1.93;;;0.90;;
71164;SDS011;58859;55.132;-1.586;2023-05-10T09:38:00;5.60;;;0.75;;
71164;SDS011;58859;55.132;-1.586;2023-05-10T09:40:28;3.53;;;1.20;;
71164;SDS011;58859;55.132;-1.586;2023-05-10T09:42:55;5.38;;;1.05;;
71164;SDS011;58859;55.132;-1.586;2023-05-10T09:45:22;5.20;;;1.65;;
71164;SDS011;58859;55.132;-1.586;2023-05-10T09:47:49;2.28;;;1.17;;
71164;SDS011;58859;55.132;-1.586;2023-05-10T09:50:14;3.05;;;1.05;;
71164;SDS011;58859;55.132;-1.586;2023-05-10T09:52:47;2.90;;;1.10;;
71164;SDS011;58859;55.132;-1.586;2023-05-10T09:55:43;3.33;;;0.80;;
71164;SDS011;58859;55.132;-1.586;2023-05-10T09:58:11;2.33;;;0.90;;
71164;SDS011;58859;55.132;-1.586;2023-05-10T10:00:38;4.57;;;0.80;;
71164;SDS011;58859;55.132;-1.586;2023-05-10T10:03:14;1.92;;;0.57;;
71164;SDS011;58859;55.132;-1.586;2023-05-10T10:05:41;1.33;;;0.63;;
71164;SDS011;58859;55.132;-1.586;2023-05-10T10:08:08;4.13;;;1.20;;
71164;SDS011;58859;55.132;-1.586;2023-05-10T10:10:34;3.92;;;0.80;;
71164;SDS011;58859;55.132;-1.586;2023-05-10T10:13:01;1.67;;;0.85;;
71164;SDS011;58859;55.132;-1.586;2023-05-10T10:15:27;2.80;;;1.13;;
71164;SDS011;58859;55.132;-1.586;2023-05-10T10:17:52;1.73;;;0.77;;
71164;SDS011;58859;55.132;-1.586;2023-05-10T10:20:19;4.38;;;0.80;;
71164;SDS011;58859;55.132;-1.586;2023-05-10T10:22:46;2.60;;;1.02;;
71164;SDS011;58859;55.132;-1.586;2023-05-10T10:25:12;2.25;;;0.80;;
71164;SDS011;58859;55.132;-1.586;2023-05-10T10:33:13;2.58;;;2.05;;
71164;SDS011;58859;55.132;-1.586;2023-05-10T10:35:55;1.55;;;0.85;;
71164;SDS011;58859;55.132;-1.586;2023-05-10T10:38:23;3.00;;;0.88;;
71164;SDS011;58859;55.132;-1.586;2023-05-10T10:40:57;3.13;;;1.40;;
71164;SDS011;58859;55.132;-1.586;2023-05-10T10:43:27;3.60;;;1.02;;
71164;SDS011;58859;55.132;-1.586;2023-05-10T10:48:38;2.77;;;1.13;;
71164;SDS011;58859;55.132;-1.586;2023-05-10T10:51:04;0.90;;;0.60;;
71164;SDS011;58859;55.132;-1.586;2023-05-10T10:53:29;2.63;;;0.80;;
71164;SDS011;58859;55.132;-1.586;2023-05-10T10:56:08;1.00;;;0.75;;
71164;SDS011;58859;55.132;-1.586;2023-05-10T10:58:38;1.38;;;0.93;;
71164;SDS011;58859;55.132;-1.586;2023-05-10T11:03:40;0.77;;;0.77;;
71164;SDS011;58859;55.132;-1.586;2023-05-10T11:06:06;1.45;;;0.70;;
71164;SDS011;58859;55.132;-1.586;2023-05-10T11:08:33;0.93;;;0.88;;
71164;SDS011;58859;55.132;-1.586;2023-05-10T11:11:06;1.42;;;0.63;;
71164;SDS011;58859;55.132;-1.586;2023-05-10T11:13:44;1.35;;;0.50;;
71164;SDS011;58859;55.132;-1.586;2023-05-10T11:16:12;3.75;;;0.77;;
71164;SDS011;58859;55.132;-1.586;2023-05-10T11:19:18;1.25;;;0.90;;
71164;SDS011;58859;55.132;-1.586;2023-05-10T11:24:30;3.55;;;0.70;;
71164;SDS011;58859;55.132;-1.586;2023-05-10T11:26:55;0.40;;;0.40;;
71164;SDS011;58859;55.132;-1.586;2023-05-10T11:29:21;1.50;;;0.50;;
71164;SDS011;58859;55.132;-1.586;2023-05-10T11:31:47;1.35;;;0.40;;
71164;SDS011;58859;55.132;-1.586;2023-05-10T11:36:56;0.40;;;0.30;;
71164;SDS011;58859;55.132;-1.586;2023-05-10T11:39:28;0.35;;;0.30;;
71164;SDS011;58859;55.132;-1.586;2023-05-10T11:41:56;1.40;;;0.70;;
71164;SDS011;58859;55.132;-1.586;2023-05-10T11:44:23;1.40;;;0.43;;
71164;SDS011;58859;55.132;-1.586;2023-05-10T11:46:49;0.40;;;0.40;;
71164;SDS011;58859;55.132;-1.586;2023-05-10T11:49:15;1.13;;;0.50;;
71164;SDS011;58859;55.132;-1.586;2023-05-10T11:51:40;0.67;;;0.50;;
71164;SDS011;58859;55.132;-1.586;2023-05-10T11:54:08;0.20;;;0.15;;
71164;SDS011;58859;55.132;-1.586;2023-05-10T11:56:36;0.30;;;0.30;;
71164;SDS011;58859;55.132;-1.586;2023-05-10T11:59:05;0.73;;;0.20;;
71164;SDS011;58859;55.132;-1.586;2023-05-10T12:01:30;1.57;;;0.30;;
71164;SDS011;58859;55.132;-1.586;2023-05-10T12:03:57;0.38;;;0.25;;
71164;SDS011;58859;55.132;-1.586;2023-05-10T12:06:26;0.75;;;0.30;;
71164;SDS011;58859;55.132;-1.586;2023-05-10T12:08:53;0.40;;;0.40;;
71164;SDS011;58859;55.132;-1.586;2023-05-10T12:11:19;0.30;;;0.30;;
71164;SDS011;58859;55.132;-1.586;2023-05-10T12:13:46;1.02;;;0.30;;
71164;SDS011;58859;55.132;-1.586;2023-05-10T12:16:13;0.30;;;0.20;;
71164;SDS011;58859;55.132;-1.586;2023-05-10T12:18:40;0.40;;;0.20;;
71164;SDS011;58859;55.132;-1.586;2023-05-10T12:21:07;0.30;;;0.30;;
71164;SDS011;58859;55.132;-1.586;2023-05-10T12:23:35;1.05;;;0.38;;
71164;SDS011;58859;55.132;-1.586;2023-05-10T12:26:04;0.60;;;0.20;;
71164;SDS011;58859;55.132;-1.586;2023-05-10T12:28:31;0.75;;;0.50;;
71164;SDS011;58859;55.132;-1.586;2023-05-10T12:30:57;0.55;;;0.30;;
71164;SDS011;58859;55.132;-1.586;2023-05-10T12:33:24;1.08;;;0.30;;
71164;SDS011;58859;55.132;-1.586;2023-05-10T12:35:54;0.33;;;0.33;;
71164;SDS011;58859;55.132;-1.586;2023-05-10T12:38:30;0.43;;;0.43;;
71164;SDS011;58859;55.132;-1.586;2023-05-10T12:41:01;0.30;;;0.30;;
71164;SDS011;58859;55.132;-1.586;2023-05-10T12:43:37;0.32;;;0.30;;
71164;SDS011;58859;55.132;-1.586;2023-05-10T12:46:04;0.75;;;0.43;;
71164;SDS011;58859;55.132;-1.586;2023-05-10T12:48:30;1.15;;;0.40;;
71164;SDS011;58859;55.132;-1.586;2023-05-10T12:50:56;0.43;;;0.40;;
71164;SDS011;58859;55.132;-1.586;2023-05-10T12:53:22;1.03;;;0.90;;
71164;SDS011;58859;55.132;-1.586;2023-05-10T12:55:47;1.53;;;0.50;;
71164;SDS011;58859;55.132;-1.586;2023-05-10T12:58:12;0.98;;;0.57;;
71164;SDS011;58859;55.132;-1.586;2023-05-10T13:00:38;0.80;;;0.30;;
71164;SDS011;58859;55.132;-1.586;2023-05-10T13:03:04;0.83;;;0.60;;
71164;SDS011;58859;55.132;-1.586;2023-05-10T13:05:31;0.43;;;0.20;;
71164;SDS011;58859;55.132;-1.586;2023-05-10T13:07:57;1.30;;;0.60;;
71164;SDS011;58859;55.132;-1.586;2023-05-10T13:10:23;1.03;;;0.53;;
71164;SDS011;58859;55.132;-1.586;2023-05-10T13:12:48;0.43;;;0.35;;
71164;SDS011;58859;55.132;-1.586;2023-05-10T13:15:14;0.17;;;0.17;;
71164;SDS011;58859;55.132;-1.586;2023-05-10T13:17:39;1.13;;;0.50;;
71164;SDS011;58859;55.132;-1.586;2023-05-10T13:20:06;0.85;;;0.50;;
71164;SDS011;58859;55.132;-1.586;2023-05-10T13:22:31;0.30;;;0.20;;
71164;SDS011;58859;55.132;-1.586;2023-05-10T13:24:57;0.40;;;0.40;;
71164;SDS011;58859;55.132;-1.586;2023-05-10T13:27:22;0.93;;;0.40;;
71164;SDS011;58859;55.132;-1.586;2023-05-10T13:29:47;1.27;;;0.60;;
71164;SDS011;58859;55.132;-1.586;2023-05-10T13:32:13;0.30;;;0.30;;
71164;SDS011;58859;55.132;-1.586;2023-05-10T13:34:38;0.40;;;0.40;;
71164;SDS011;58859;55.132;-1.586;2023-05-10T13:37:04;1.17;;;0.40;;
71164;SDS011;58859;55.132;-1.586;2023-05-10T13:39:29;0.30;;;0.20;;
71164;SDS011;58859;55.132;-1.586;2023-05-10T13:41:58;0.82;;;0.40;;
71164;SDS011;58859;55.132;-1.586;2023-05-10T13:44:23;2.87;;;0.67;;
71164;SDS011;58859;55.132;-1.586;2023-05-10T13:46:48;2.00;;;0.60;;
71164;SDS011;58859;55.132;-1.586;2023-05-10T13:49:14;0.73;;;0.70;;
71164;SDS011;58859;55.132;-1.586;2023-05-10T13:51:40;0.63;;;0.63;;
71164;SDS011;58859;55.132;-1.586;2023-05-10T13:54:05;0.80;;;0.80;;
71164;SDS011;58859;55.132;-1.586;2023-05-10T13:56:30;1.13;;;0.43;;
71164;SDS011;58859;55.132;-1.586;2023-05-10T13:58:56;1.13;;;0.40;;
71164;SDS011;58859;55.132;-1.586;2023-05-10T14:01:23;1.10;;;0.80;;
71164;SDS011;58859;55.132;-1.586;2023-05-10T14:03:48;1.40;;;0.50;;
71164;SDS011;58859;55.132;-1.586;2023-05-10T14:06:14;1.10;;;0.28;;
71164;SDS011;58859;55.132;-1.586;2023-05-10T14:08:39;0.60;;;0.50;;
71164;SDS011;58859;55.132;-1.586;2023-05-10T14:11:05;0.17;;;0.17;;
71164;SDS011;58859;55.132;-1.586;2023-05-10T14:13:30;0.50;;;0.50;;
71164;SDS011;58859;55.132;-1.586;2023-05-10T14:15:56;1.48;;;0.40;;
71164;SDS011;58859;55.132;-1.586;2023-05-10T14:18:21;0.40;;;0.40;;
71164;SDS011;58859;55.132;-1.586;2023-05-10T14:20:47;0.23;;;0.20;;
71164;SDS011;58859;55.132;-1.586;2023-05-10T14:23:12;0.20;;;0.20;;
71164;SDS011;58859;55.132;-1.586;2023-05-10T14:25:40;0.20;;;0.20;;
71164;SDS011;58859;55.132;-1.586;2023-05-10T14:28:06;1.03;;;0.10;;
71164;SDS011;58859;55.132;-1.586;2023-05-10T14:30:31;0.55;;;0.25;;
71164;SDS011;58859;55.132;-1.586;2023-05-10T14:32:59;0.22;;;0.22;;
71164;SDS011;58859;55.132;-1.586;2023-05-10T14:35:26;1.27;;;0.30;;
71164;SDS011;58859;55.132;-1.586;2023-05-10T14:37:52;0.60;;;0.30;;
71164;SDS011;58859;55.132;-1.586;2023-05-10T14:40:17;0.47;;;0.47;;
71164;SDS011;58859;55.132;-1.586;2023-05-10T14:42:42;0.60;;;0.60;;
71164;SDS011;58859;55.132;-1.586;2023-05-10T14:45:09;0.75;;;0.40;;
71164;SDS011;58859;55.132;-1.586;2023-05-10T14:47:35;1.30;;;0.35;;
71164;SDS011;58859;55.132;-1.586;2023-05-10T14:50:01;0.90;;;0.50;;
71164;SDS011;58859;55.132;-1.586;2023-05-10T14:52:27;0.83;;;0.30;;
71164;SDS011;58859;55.132;-1.586;2023-05-10T14:54:52;0.60;;;0.22;;
71164;SDS011;58859;55.132;-1.586;2023-05-10T14:57:18;0.35;;;0.35;;
71164;SDS011;58859;55.132;-1.586;2023-05-10T14:59:44;1.45;;;0.60;;
71164;SDS011;58859;55.132;-1.586;2023-05-10T15:02:09;2.30;;;0.33;;
71164;SDS011;58859;55.132;-1.586;2023-05-10T15:04:35;0.32;;;0.32;;
71164;SDS011;58859;55.132;-1.586;2023-05-10T15:07:00;0.33;;;0.33;;
71164;SDS011;58859;55.132;-1.586;2023-05-10T15:09:26;0.87;;;0.50;;